createdAt,value
2017-05-18T00:00:38.264Z,18.65
2017-05-18T00:01:19.150Z,18.63
2017-05-18T00:02:00.049Z,18.55
2017-05-18T00:02:40.959Z,18.59
2017-05-18T00:03:21.847Z,18.65
2017-05-18T00:04:02.736Z,18.65
2017-05-18T00:04:43.639Z,18.55
2017-05-18T00:05:24.549Z,18.6
2017-05-18T00:06:05.442Z,18.56
2017-05-18T00:06:46.361Z,18.63
2017-05-18T00:07:27.252Z,18.58
2017-05-18T00:08:08.138Z,18.55
2017-05-18T00:08:49.038Z,18.58
2017-05-18T00:09:29.928Z,18.59
2017-05-18T00:10:10.869Z,18.59
2017-05-18T00:10:51.768Z,18.62
2017-05-18T00:11:32.661Z,18.59
2017-05-18T00:12:13.558Z,18.56
2017-05-18T00:12:54.463Z,18.56
2017-05-18T00:13:35.359Z,18.55
2017-05-18T00:14:16.262Z,18.56
2017-05-18T00:14:57.138Z,18.55
2017-05-18T00:15:38.032Z,18.53
2017-05-18T00:16:18.912Z,18.58
2017-05-18T00:16:59.805Z,18.55
2017-05-18T00:17:40.697Z,18.49
2017-05-18T00:18:21.581Z,18.5
2017-05-18T00:19:02.471Z,18.47
2017-05-18T00:19:43.395Z,18.55
2017-05-18T00:20:24.269Z,18.49
2017-05-18T00:21:05.163Z,18.52
2017-05-18T00:21:46.064Z,18.52
2017-05-18T00:22:26.956Z,18.52
2017-05-18T00:23:07.853Z,18.44
2017-05-18T00:23:48.768Z,18.45
2017-05-18T00:24:29.631Z,18.47
2017-05-18T00:25:10.547Z,18.49
2017-05-18T00:25:51.433Z,18.41
2017-05-18T00:26:32.361Z,18.44
2017-05-18T00:27:13.305Z,18.41
2017-05-18T00:27:54.184Z,18.4
2017-05-18T00:28:35.093Z,18.44
2017-05-18T00:29:15.982Z,18.33
2017-05-18T00:29:56.887Z,18.35
2017-05-18T00:30:37.772Z,18.34
2017-05-18T00:31:18.714Z,18.45
2017-05-18T00:31:59.565Z,18.35
2017-05-18T00:32:40.449Z,18.35
2017-05-18T00:33:21.334Z,18.34
2017-05-18T00:34:02.251Z,18.29
2017-05-18T00:34:43.133Z,18.33
2017-05-18T00:35:24.059Z,18.31
2017-05-18T00:36:04.952Z,18.23
2017-05-18T00:36:45.854Z,18.22
2017-05-18T00:37:26.752Z,18.33
2017-05-18T00:38:07.643Z,18.33
2017-05-18T00:38:48.522Z,18.31
2017-05-18T00:39:29.423Z,18.25
2017-05-18T00:40:10.321Z,18.29
2017-05-18T00:40:51.218Z,18.25
2017-05-18T00:41:32.123Z,18.22
2017-05-18T00:42:12.989Z,18.23
2017-05-18T00:42:53.899Z,18.28
2017-05-18T00:43:34.788Z,18.23
2017-05-18T00:44:15.685Z,18.26
2017-05-18T00:44:56.573Z,18.2
2017-05-18T00:45:37.461Z,18.25
2017-05-18T00:46:18.363Z,18.22
2017-05-18T00:46:59.283Z,18.19
2017-05-18T00:47:40.172Z,18.23
2017-05-18T00:48:21.064Z,18.1
2017-05-18T00:49:01.956Z,18.11
2017-05-18T00:49:42.853Z,18.11
2017-05-18T00:50:23.743Z,18.05
2017-05-18T00:51:04.646Z,18.11
2017-05-18T00:51:45.533Z,18.08
2017-05-18T00:52:26.436Z,18.08
2017-05-18T00:53:07.334Z,18.07
2017-05-18T00:53:48.263Z,18.1
2017-05-18T00:54:29.160Z,18.19
2017-05-18T00:55:10.057Z,18.07
2017-05-18T00:55:50.956Z,18.16
2017-05-18T00:56:31.877Z,18.05
2017-05-18T00:57:12.775Z,18.05
2017-05-18T00:57:53.684Z,18.08
2017-05-18T00:58:34.573Z,18.1
2017-05-18T00:59:15.494Z,18.13
2017-05-18T00:59:56.395Z,17.98
2017-05-18T01:00:37.298Z,18.08
2017-05-18T01:01:18.187Z,18.04
2017-05-18T01:01:59.080Z,18.03
2017-05-18T01:02:39.973Z,17.98
2017-05-18T01:03:20.878Z,18.01
2017-05-18T01:04:01.790Z,18.04
2017-05-18T01:04:42.688Z,18.08
2017-05-18T01:05:23.581Z,18.01
2017-05-18T01:06:04.468Z,18.07
2017-05-18T01:06:45.358Z,18
2017-05-18T01:07:26.259Z,18.01
2017-05-18T01:08:07.148Z,18.04
2017-05-18T01:08:48.026Z,18.01
2017-05-18T01:09:28.935Z,18
2017-05-18T01:10:09.840Z,18
2017-05-18T01:10:50.732Z,17.92
2017-05-18T01:11:31.625Z,17.95
2017-05-18T01:12:12.539Z,17.95
2017-05-18T01:12:53.431Z,17.98
2017-05-18T01:13:34.314Z,17.94
2017-05-18T01:14:15.206Z,17.95
2017-05-18T01:14:56.105Z,17.94
2017-05-18T01:15:37.021Z,17.94
2017-05-18T01:16:17.948Z,18
2017-05-18T01:16:58.858Z,17.9
2017-05-18T01:17:39.766Z,17.94
2017-05-18T01:18:20.648Z,17.89
2017-05-18T01:19:01.541Z,17.9
2017-05-18T01:19:42.440Z,17.83
2017-05-18T01:20:23.321Z,17.87
2017-05-18T01:21:04.210Z,17.9
2017-05-18T01:21:45.102Z,17.89
2017-05-18T01:22:25.997Z,17.8
2017-05-18T01:23:06.895Z,17.87
2017-05-18T01:23:47.790Z,17.82
2017-05-18T01:24:28.676Z,17.82
2017-05-18T01:25:09.570Z,17.83
2017-05-18T01:25:50.463Z,17.82
2017-05-18T01:26:31.352Z,17.83
2017-05-18T01:27:12.236Z,17.82
2017-05-18T01:27:53.135Z,17.8
2017-05-18T01:28:34.053Z,17.78
2017-05-18T01:29:14.937Z,17.78
2017-05-18T01:29:55.819Z,17.7
2017-05-18T01:30:36.708Z,17.79
2017-05-18T01:31:17.614Z,17.79
2017-05-18T01:31:58.505Z,17.67
2017-05-18T01:32:39.409Z,17.68
2017-05-18T01:33:20.309Z,17.74
2017-05-18T01:34:01.196Z,17.71
2017-05-18T01:34:42.120Z,17.65
2017-05-18T01:35:23.008Z,17.74
2017-05-18T01:36:03.895Z,17.67
2017-05-18T01:36:44.782Z,17.63
2017-05-18T01:38:19.023Z,17.64
2017-05-18T01:38:59.925Z,17.57
2017-05-18T01:39:40.820Z,17.6
2017-05-18T01:40:21.711Z,17.57
2017-05-18T01:41:02.608Z,17.6
2017-05-18T01:41:43.504Z,17.57
2017-05-18T01:42:24.393Z,17.6
2017-05-18T01:43:05.298Z,17.6
2017-05-18T01:43:46.184Z,17.67
2017-05-18T01:44:27.070Z,17.57
2017-05-18T01:45:07.955Z,17.65
2017-05-18T01:45:48.848Z,17.6
2017-05-18T01:46:29.737Z,17.67
2017-05-18T01:47:10.625Z,17.54
2017-05-18T01:47:51.512Z,17.59
2017-05-18T01:48:32.424Z,17.56
2017-05-18T01:49:13.296Z,17.59
2017-05-18T01:49:54.190Z,17.52
2017-05-18T01:50:35.073Z,17.59
2017-05-18T01:51:15.964Z,17.51
2017-05-18T01:51:56.840Z,17.49
2017-05-18T01:52:37.739Z,17.52
2017-05-18T01:53:18.617Z,17.57
2017-05-18T01:53:59.515Z,17.44
2017-05-18T01:54:40.401Z,17.54
2017-05-18T01:55:21.292Z,17.51
2017-05-18T01:56:02.186Z,17.54
2017-05-18T01:56:43.069Z,17.45
2017-05-18T01:57:23.968Z,17.44
2017-05-18T01:58:04.867Z,17.36
2017-05-18T01:58:45.752Z,17.34
2017-05-18T01:59:26.652Z,17.41
2017-05-18T02:00:07.540Z,17.33
2017-05-18T02:00:48.428Z,17.34
2017-05-18T02:01:29.315Z,17.29
2017-05-18T02:02:10.218Z,17.24
2017-05-18T02:02:51.123Z,17.31
2017-05-18T02:03:32.009Z,17.26
2017-05-18T02:04:12.909Z,17.29
2017-05-18T02:04:53.805Z,17.31
2017-05-18T02:05:34.711Z,17.26
2017-05-18T02:06:15.600Z,17.31
2017-05-18T02:06:56.510Z,17.31
2017-05-18T02:07:37.395Z,17.3
2017-05-18T02:08:18.293Z,17.2
2017-05-18T02:08:59.181Z,17.19
2017-05-18T02:09:40.071Z,17.15
2017-05-18T02:10:20.970Z,17.2
2017-05-18T02:11:01.858Z,17.15
2017-05-18T02:11:42.764Z,17.22
2017-05-18T02:12:23.649Z,17.23
2017-05-18T02:13:04.539Z,17.19
2017-05-18T02:13:45.433Z,17.41
2017-05-18T02:14:26.311Z,17.34
2017-05-18T02:15:07.208Z,17.31
2017-05-18T02:15:48.091Z,17.27
2017-05-18T02:16:28.989Z,17.23
2017-05-18T02:17:09.880Z,17.24
2017-05-18T02:17:50.773Z,17.2
2017-05-18T02:18:31.665Z,17.11
2017-05-18T02:19:12.559Z,17.15
2017-05-18T02:19:53.477Z,17.04
2017-05-18T02:20:34.367Z,17.08
2017-05-18T02:21:15.263Z,17.01
2017-05-18T02:21:56.163Z,17.06
2017-05-18T02:22:37.062Z,17.06
2017-05-18T02:23:17.952Z,17.06
2017-05-18T02:23:58.887Z,17.05
2017-05-18T02:24:39.733Z,17.05
2017-05-18T02:25:20.625Z,16.96
2017-05-18T02:26:01.518Z,17.01
2017-05-18T02:26:42.406Z,16.96
2017-05-18T02:27:23.291Z,16.97
2017-05-18T02:28:04.179Z,16.87
2017-05-18T02:28:45.070Z,16.93
2017-05-18T02:29:25.962Z,16.84
2017-05-18T02:30:06.852Z,16.89
2017-05-18T02:30:47.746Z,16.86
2017-05-18T02:31:28.639Z,16.86
2017-05-18T02:32:09.534Z,16.93
2017-05-18T02:32:50.427Z,16.84
2017-05-18T02:33:31.312Z,16.89
2017-05-18T02:34:12.189Z,16.84
2017-05-18T02:34:53.072Z,16.84
2017-05-18T02:35:33.964Z,16.84
2017-05-18T02:36:14.873Z,16.76
2017-05-18T02:36:55.756Z,16.83
2017-05-18T02:37:36.642Z,16.83
2017-05-18T02:38:17.544Z,16.78
2017-05-18T02:38:58.429Z,16.83
2017-05-18T02:40:26.592Z,16.84
2017-05-18T02:41:07.474Z,16.84
2017-05-18T02:41:48.364Z,16.81
2017-05-18T02:42:29.268Z,16.75
2017-05-18T02:43:10.138Z,16.83
2017-05-18T02:43:51.044Z,16.75
2017-05-18T02:44:31.941Z,16.81
2017-05-18T02:45:12.825Z,16.71
2017-05-18T02:45:53.718Z,16.75
2017-05-18T02:46:34.620Z,16.78
2017-05-18T02:47:15.504Z,16.74
2017-05-18T02:47:56.404Z,16.75
2017-05-18T02:48:37.285Z,16.75
2017-05-18T02:49:18.172Z,16.69
2017-05-18T02:49:59.073Z,16.74
2017-05-18T02:50:40.012Z,16.75
2017-05-18T02:51:20.852Z,16.66
2017-05-18T02:52:01.745Z,16.68
2017-05-18T02:52:42.652Z,16.71
2017-05-18T02:53:23.523Z,16.65
2017-05-18T02:54:04.415Z,16.71
2017-05-18T02:54:45.299Z,16.68
2017-05-18T02:55:26.177Z,16.68
2017-05-18T02:56:07.059Z,16.66
2017-05-18T02:56:47.956Z,16.65
2017-05-18T02:57:28.844Z,16.61
2017-05-18T02:58:09.739Z,16.6
2017-05-18T02:58:50.626Z,16.64
2017-05-18T02:59:31.534Z,16.57
2017-05-18T03:00:12.414Z,16.56
2017-05-18T03:00:53.307Z,16.53
2017-05-18T03:01:34.210Z,16.51
2017-05-18T03:02:15.076Z,16.61
2017-05-18T03:02:55.957Z,16.51
2017-05-18T03:03:36.852Z,16.54
2017-05-18T03:04:17.752Z,16.61
2017-05-18T03:04:58.627Z,16.5
2017-05-18T03:05:39.524Z,16.5
2017-05-18T03:06:20.410Z,16.47
2017-05-18T03:07:01.299Z,16.56
2017-05-18T03:08:20.183Z,16.51
2017-05-18T03:09:01.085Z,16.5
2017-05-18T03:09:41.978Z,16.47
2017-05-18T03:10:22.878Z,16.46
2017-05-18T03:11:03.762Z,16.53
2017-05-18T03:11:44.637Z,16.43
2017-05-18T03:12:25.545Z,16.43
2017-05-18T03:13:06.435Z,16.49
2017-05-18T03:13:47.322Z,16.46
2017-05-18T03:14:28.219Z,16.5
2017-05-18T03:15:09.099Z,16.56
2017-05-18T03:15:49.993Z,16.49
2017-05-18T03:16:30.886Z,16.43
2017-05-18T03:17:11.781Z,16.46
2017-05-18T03:17:52.646Z,16.36
2017-05-18T03:18:33.531Z,16.39
2017-05-18T03:19:14.464Z,16.36
2017-05-18T03:19:55.319Z,16.36
2017-05-18T03:20:36.258Z,16.38
2017-05-18T03:21:17.127Z,16.33
2017-05-18T03:21:58.020Z,16.35
2017-05-18T03:22:38.916Z,16.28
2017-05-18T03:23:19.811Z,16.31
2017-05-18T03:24:00.698Z,16.26
2017-05-18T03:24:41.586Z,16.28
2017-05-18T03:25:22.483Z,16.26
2017-05-18T03:26:03.379Z,16.28
2017-05-18T03:26:44.276Z,16.26
2017-05-18T03:27:25.172Z,16.28
2017-05-18T03:28:06.074Z,16.24
2017-05-18T03:28:46.979Z,16.26
2017-05-18T03:29:27.869Z,16.26
2017-05-18T03:30:08.781Z,16.23
2017-05-18T03:30:49.678Z,16.13
2017-05-18T03:31:30.574Z,16.21
2017-05-18T03:32:11.472Z,16.24
2017-05-18T03:32:52.362Z,16.2
2017-05-18T03:33:33.258Z,16.12
2017-05-18T03:34:14.144Z,16.24
2017-05-18T03:34:55.027Z,16.21
2017-05-18T03:35:35.925Z,16.16
2017-05-18T03:36:16.811Z,16.23
2017-05-18T03:36:57.712Z,16.26
2017-05-18T03:37:38.595Z,16.26
2017-05-18T03:38:19.510Z,16.17
2017-05-18T03:39:00.369Z,16.17
2017-05-18T03:39:41.270Z,16.23
2017-05-18T03:40:22.165Z,16.23
2017-05-18T03:41:03.073Z,16.16
2017-05-18T03:41:43.944Z,16.2
2017-05-18T03:42:24.834Z,16.15
2017-05-18T03:43:05.752Z,16.12
2017-05-18T03:43:46.636Z,16.15
2017-05-18T03:44:27.555Z,16.16
2017-05-18T03:45:08.447Z,16.17
2017-05-18T03:45:49.336Z,16.26
2017-05-18T03:46:30.216Z,16.15
2017-05-18T03:47:11.118Z,16.12
2017-05-18T03:47:52.005Z,16.13
2017-05-18T03:48:32.888Z,16.16
2017-05-18T03:49:13.774Z,16.15
2017-05-18T03:49:54.650Z,16.15
2017-05-18T03:50:35.541Z,16.16
2017-05-18T03:51:16.450Z,16.16
2017-05-18T03:51:57.330Z,16.12
2017-05-18T03:52:38.262Z,16.15
2017-05-18T03:53:19.160Z,16.15
2017-05-18T03:54:00.053Z,16.2
2017-05-18T03:54:40.964Z,16.21
2017-05-18T03:55:21.853Z,16.21
2017-05-18T03:56:02.742Z,16.17
2017-05-18T03:56:43.640Z,16.13
2017-05-18T03:57:24.537Z,16.24
2017-05-18T03:58:05.439Z,16.26
2017-05-18T03:58:46.332Z,16.28
2017-05-18T03:59:27.255Z,16.23
2017-05-18T04:00:08.136Z,16.24
2017-05-18T04:00:49.023Z,16.21
2017-05-18T04:01:29.924Z,16.23
2017-05-18T04:02:10.812Z,16.2
2017-05-18T04:02:51.708Z,16.24
2017-05-18T04:03:32.598Z,16.26
2017-05-18T04:04:13.490Z,16.29
2017-05-18T04:04:54.369Z,16.29
2017-05-18T04:05:35.266Z,16.35
2017-05-18T04:06:16.163Z,16.38
2017-05-18T04:06:57.056Z,16.35
2017-05-18T04:07:37.950Z,16.29
2017-05-18T04:08:18.838Z,16.35
2017-05-18T04:08:59.733Z,16.38
2017-05-18T04:09:40.628Z,16.49
2017-05-18T04:10:21.552Z,16.47
2017-05-18T04:11:02.433Z,16.38
2017-05-18T04:11:43.321Z,16.46
2017-05-18T04:12:24.206Z,16.46
2017-05-18T04:13:05.110Z,16.47
2017-05-18T04:13:46.009Z,16.54
2017-05-18T04:14:26.904Z,16.43
2017-05-18T04:15:07.799Z,16.5
2017-05-18T04:15:48.697Z,16.54
2017-05-18T04:16:29.589Z,16.51
2017-05-18T04:17:10.475Z,16.56
2017-05-18T04:17:51.354Z,16.64
2017-05-18T04:18:32.241Z,16.56
2017-05-18T04:19:13.145Z,16.56
2017-05-18T04:19:54.038Z,16.68
2017-05-18T04:20:34.934Z,16.68
2017-05-18T04:21:15.832Z,16.69
2017-05-18T04:21:56.707Z,16.68
2017-05-18T04:22:37.590Z,16.66
2017-05-18T04:23:18.477Z,16.81
2017-05-18T04:23:59.367Z,16.75
2017-05-18T04:24:40.254Z,16.78
2017-05-18T04:25:21.145Z,16.81
2017-05-18T04:26:02.035Z,16.74
2017-05-18T04:26:42.929Z,16.76
2017-05-18T04:27:23.813Z,16.84
2017-05-18T04:28:04.706Z,16.83
2017-05-18T04:28:45.614Z,16.84
2017-05-18T04:29:26.507Z,16.89
2017-05-18T04:30:07.403Z,16.89
2017-05-18T04:30:48.297Z,16.91
2017-05-18T04:31:29.190Z,16.91
2017-05-18T04:32:10.078Z,16.93
2017-05-18T04:32:51.019Z,16.89
2017-05-18T04:33:32.134Z,16.97
2017-05-18T04:34:13.073Z,16.97
2017-05-18T04:34:53.971Z,17.02
2017-05-18T04:35:34.864Z,17.06
2017-05-18T04:36:15.753Z,17.01
2017-05-18T04:36:56.665Z,17.02
2017-05-18T04:37:37.566Z,17.06
2017-05-18T04:38:18.461Z,17.16
2017-05-18T04:38:59.356Z,17.2
2017-05-18T04:39:40.254Z,17.14
2017-05-18T04:40:21.152Z,17.08
2017-05-18T04:41:02.040Z,17.16
2017-05-18T04:41:42.940Z,17.33
2017-05-18T04:42:23.831Z,17.29
2017-05-18T04:43:04.726Z,17.23
2017-05-18T04:43:45.620Z,17.27
2017-05-18T04:44:26.511Z,17.39
2017-05-18T04:45:07.402Z,17.33
2017-05-18T04:45:48.304Z,17.34
2017-05-18T04:46:29.192Z,17.31
2017-05-18T04:47:10.081Z,17.36
2017-05-18T04:47:51.028Z,17.36
2017-05-18T04:48:31.924Z,17.44
2017-05-18T04:49:12.821Z,17.49
2017-05-18T04:49:53.713Z,17.46
2017-05-18T04:50:34.605Z,17.48
2017-05-18T04:51:15.496Z,17.6
2017-05-18T04:51:56.386Z,17.59
2017-05-18T04:52:37.278Z,17.59
2017-05-18T04:53:18.154Z,17.65
2017-05-18T04:53:59.042Z,17.64
2017-05-18T04:54:39.943Z,17.67
2017-05-18T04:55:20.832Z,17.65
2017-05-18T04:56:01.718Z,17.74
2017-05-18T04:56:42.613Z,17.72
2017-05-18T04:57:23.500Z,17.82
2017-05-18T04:58:04.394Z,17.76
2017-05-18T04:58:45.288Z,17.71
2017-05-18T04:59:26.179Z,17.76
2017-05-18T05:00:07.073Z,17.83
2017-05-18T05:00:48.018Z,17.85
2017-05-18T05:01:28.858Z,17.94
2017-05-18T05:02:09.774Z,17.98
2017-05-18T05:02:50.673Z,18
2017-05-18T05:03:31.553Z,18.04
2017-05-18T05:04:12.451Z,18.07
2017-05-18T05:04:53.349Z,18.07
2017-05-18T05:05:34.251Z,18.11
2017-05-18T05:06:15.147Z,18.1
2017-05-18T05:06:56.025Z,18.15
2017-05-18T05:07:36.966Z,18.26
2017-05-18T05:08:17.866Z,18.22
2017-05-18T05:08:58.766Z,18.26
2017-05-18T05:09:39.665Z,18.19
2017-05-18T05:10:20.553Z,18.34
2017-05-18T05:11:01.456Z,18.31
2017-05-18T05:11:42.344Z,18.35
2017-05-18T05:12:23.243Z,18.34
2017-05-18T05:13:04.147Z,18.38
2017-05-18T05:13:45.038Z,18.44
2017-05-18T05:14:25.936Z,18.43
2017-05-18T05:15:06.828Z,18.58
2017-05-18T05:15:47.709Z,18.6
2017-05-18T05:16:28.603Z,18.63
2017-05-18T05:17:09.500Z,18.6
2017-05-18T05:17:50.387Z,18.6
2017-05-18T05:18:31.300Z,18.59
2017-05-18T05:19:12.205Z,18.65
2017-05-18T05:19:53.095Z,18.73
2017-05-18T05:20:33.993Z,18.75
2017-05-18T05:21:14.894Z,18.75
2017-05-18T05:21:55.774Z,18.73
2017-05-18T05:22:36.672Z,18.74
2017-05-18T05:23:17.556Z,18.77
2017-05-18T05:23:58.441Z,18.81
2017-05-18T05:24:39.346Z,18.83
2017-05-18T05:25:20.244Z,18.88
2017-05-18T05:26:01.130Z,18.9
2017-05-18T05:26:42.034Z,18.92
2017-05-18T05:27:22.925Z,18.9
2017-05-18T05:28:03.822Z,18.9
2017-05-18T05:28:44.708Z,18.88
2017-05-18T05:29:25.606Z,19.07
2017-05-18T05:30:06.487Z,19.07
2017-05-18T05:30:47.390Z,19.04
2017-05-18T05:31:28.267Z,19.09
2017-05-18T05:32:09.169Z,19.07
2017-05-18T05:32:50.073Z,19.11
2017-05-18T05:33:31.722Z,19.18
2017-05-18T05:34:12.625Z,19.11
2017-05-18T05:34:53.507Z,19.15
2017-05-18T05:35:34.400Z,19.19
2017-05-18T05:36:15.336Z,19.18
2017-05-18T05:36:56.207Z,19.26
2017-05-18T05:37:38.025Z,19.31
2017-05-18T05:38:18.925Z,19.31
2017-05-18T05:38:59.839Z,19.37
2017-05-18T05:39:40.813Z,19.24
2017-05-18T05:40:21.722Z,19.27
2017-05-18T05:41:02.605Z,19.3
2017-05-18T05:41:43.496Z,19.41
2017-05-18T05:42:24.411Z,19.27
2017-05-18T05:43:09.036Z,19.26
2017-05-18T05:43:49.968Z,19.24
2017-05-18T05:44:30.856Z,19.34
2017-05-18T05:45:11.773Z,19.37
2017-05-18T05:45:52.803Z,19.39
2017-05-18T05:46:33.691Z,19.34
2017-05-18T05:47:14.670Z,19.34
2017-05-18T05:47:55.574Z,19.44
2017-05-18T05:48:36.518Z,19.49
2017-05-18T05:49:17.399Z,19.55
2017-05-18T05:49:58.298Z,19.59
2017-05-18T05:50:39.208Z,19.67
2017-05-18T05:51:20.129Z,19.69
2017-05-18T05:52:01.005Z,19.7
2017-05-18T05:52:41.935Z,19.88
2017-05-18T05:53:22.866Z,19.79
2017-05-18T05:54:03.751Z,19.88
2017-05-18T05:55:57.428Z,20.03
2017-05-18T05:56:40.664Z,20.07
2017-05-18T05:57:21.574Z,20.03
2017-05-18T05:58:03.227Z,20.09
2017-05-18T05:58:44.257Z,20.1
2017-05-18T05:59:25.201Z,20.07
2017-05-18T06:00:06.099Z,20.19
2017-05-18T06:00:46.996Z,20.21
2017-05-18T06:01:27.882Z,20.19
2017-05-18T06:02:08.763Z,20.18
2017-05-18T06:02:49.675Z,20.18
2017-05-18T06:03:30.615Z,20.25
2017-05-18T06:04:11.711Z,20.28
2017-05-18T06:06:02.374Z,20.4
2017-05-18T06:06:43.317Z,20.39
2017-05-18T06:07:26.019Z,20.39
2017-05-18T06:08:09.529Z,20.41
2017-05-18T06:08:53.019Z,20.51
2017-05-18T06:09:33.926Z,20.55
2017-05-18T06:10:14.826Z,20.66
2017-05-18T06:10:55.709Z,20.58
2017-05-18T06:11:36.583Z,20.67
2017-05-18T06:12:17.467Z,20.69
2017-05-18T06:12:58.352Z,20.82
2017-05-18T06:13:39.250Z,21
2017-05-18T06:14:20.193Z,21.02
2017-05-18T06:15:01.037Z,21.14
2017-05-18T06:15:41.921Z,21.11
2017-05-18T06:16:22.818Z,21.27
2017-05-18T06:17:03.736Z,21.15
2017-05-18T06:17:44.635Z,21.33
2017-05-18T06:18:25.532Z,21.25
2017-05-18T06:19:06.420Z,21.39
2017-05-18T06:19:47.317Z,21.4
2017-05-18T06:20:28.207Z,21.55
2017-05-18T06:21:09.103Z,21.57
2017-05-18T06:21:49.997Z,21.61
2017-05-18T06:22:30.898Z,21.73
2017-05-18T06:23:11.805Z,21.85
2017-05-18T06:23:52.701Z,21.88
2017-05-18T06:24:33.594Z,21.98
2017-05-18T06:25:14.489Z,22.28
2017-05-18T06:25:55.383Z,22.65
2017-05-18T06:26:36.280Z,23.03
2017-05-18T06:27:17.184Z,23.44
2017-05-18T06:27:58.090Z,23.84
2017-05-18T06:28:38.982Z,24.14
2017-05-18T06:29:19.873Z,24.35
2017-05-18T06:30:00.772Z,24.58
2017-05-18T06:30:41.670Z,24.88
2017-05-18T06:31:22.563Z,25.29
2017-05-18T06:32:03.477Z,25.59
2017-05-18T06:32:44.377Z,25.91
2017-05-18T06:33:25.268Z,25.99
2017-05-18T06:34:06.171Z,25.93
2017-05-18T06:34:47.076Z,26.05
2017-05-18T06:35:27.989Z,26.29
2017-05-18T06:36:08.869Z,26.13
2017-05-18T06:36:49.778Z,26.43
2017-05-18T06:37:30.678Z,26.4
2017-05-18T06:38:11.592Z,26.37
2017-05-18T06:38:52.488Z,26.31
2017-05-18T06:40:30.886Z,25.98
2017-05-18T06:41:11.778Z,26.16
2017-05-18T06:41:52.684Z,26.28
2017-05-18T06:42:33.569Z,26.19
2017-05-18T06:43:14.471Z,26.1
2017-05-18T06:43:55.356Z,26.25
2017-05-18T06:44:36.280Z,26.31
2017-05-18T06:45:17.178Z,26.25
2017-05-18T06:45:58.077Z,26.03
2017-05-18T06:46:38.974Z,25.8
2017-05-18T06:47:19.877Z,25.93
2017-05-18T06:48:00.784Z,25.99
2017-05-18T06:48:41.676Z,25.98
2017-05-18T06:49:22.580Z,25.93
2017-05-18T06:50:03.475Z,26.02
2017-05-18T06:50:44.376Z,26
2017-05-18T06:51:25.275Z,26.28
2017-05-18T06:52:06.171Z,26.47
2017-05-18T06:52:47.080Z,26.8
2017-05-18T06:53:27.992Z,27.08
2017-05-18T06:54:08.881Z,27.1
2017-05-18T06:54:49.782Z,27.21
2017-05-18T06:55:30.689Z,26.71
2017-05-18T06:56:11.594Z,26.41
2017-05-18T06:56:52.495Z,26.33
2017-05-18T06:57:33.390Z,26.36
2017-05-18T06:58:14.297Z,26.18
2017-05-18T06:58:55.182Z,26.26
2017-05-18T06:59:36.165Z,26.48
2017-05-18T07:00:17.061Z,26.59
2017-05-18T07:00:57.965Z,26.41
2017-05-18T07:01:38.866Z,26.45
2017-05-18T07:02:19.772Z,26.44
2017-05-18T07:03:00.687Z,26.43
2017-05-18T07:03:41.588Z,26.28
2017-05-18T07:04:22.502Z,26.43
2017-05-18T07:05:03.409Z,26.8
2017-05-18T07:05:44.315Z,27.15
2017-05-18T07:06:25.287Z,27.3
2017-05-18T07:07:06.134Z,27.33
2017-05-18T07:07:47.044Z,27.4
2017-05-18T07:08:27.948Z,27.45
2017-05-18T07:09:08.853Z,27.25
2017-05-18T07:09:49.740Z,27.05
2017-05-18T07:10:30.642Z,27.22
2017-05-18T07:11:11.551Z,26.96
2017-05-18T07:11:52.445Z,26.71
2017-05-18T07:12:33.356Z,26.66
2017-05-18T07:13:14.240Z,26.88
2017-05-18T07:13:55.146Z,26.44
2017-05-18T07:14:36.079Z,26.53
2017-05-18T07:15:16.976Z,26.51
2017-05-18T07:15:57.869Z,26.74
2017-05-18T07:16:38.783Z,26.73
2017-05-18T07:17:19.720Z,26.83
2017-05-18T07:18:00.624Z,27
2017-05-18T07:18:41.533Z,27.08
2017-05-18T07:19:22.432Z,27.15
2017-05-18T07:20:03.331Z,27.08
2017-05-18T07:20:44.237Z,27.02
2017-05-18T07:21:25.149Z,27.3
2017-05-18T07:22:06.050Z,27.21
2017-05-18T07:22:46.954Z,27.1
2017-05-18T07:23:27.856Z,27.11
2017-05-18T07:24:08.761Z,27.12
2017-05-18T07:24:49.672Z,27.22
2017-05-18T07:25:30.576Z,27.12
2017-05-18T07:26:11.526Z,27.18
2017-05-18T07:26:52.386Z,27.25
2017-05-18T07:27:33.315Z,27.08
2017-05-18T07:28:14.212Z,27.14
2017-05-18T07:28:55.125Z,27.26
2017-05-18T07:29:36.048Z,27.45
2017-05-18T07:30:16.943Z,27.21
2017-05-18T07:30:57.849Z,27.14
2017-05-18T07:31:38.761Z,27.26
2017-05-18T07:32:19.669Z,27.29
2017-05-18T07:33:00.578Z,27.48
2017-05-18T07:33:41.526Z,27.55
2017-05-18T07:34:22.425Z,27.3
2017-05-18T07:35:03.331Z,27.51
2017-05-18T07:36:36.597Z,27.71
2017-05-18T07:37:17.505Z,27.67
2017-05-18T07:37:58.406Z,27.68
2017-05-18T07:38:39.309Z,27.89
2017-05-18T07:39:20.224Z,27.93
2017-05-18T07:40:01.131Z,28.08
2017-05-18T07:40:42.042Z,27.8
2017-05-18T07:41:22.944Z,27.77
2017-05-18T07:42:03.860Z,27.65
2017-05-18T07:42:44.769Z,27.77
2017-05-18T07:43:25.673Z,27.47
2017-05-18T07:44:06.557Z,27.51
2017-05-18T07:44:47.466Z,27.47
2017-05-18T07:45:28.378Z,27.68
2017-05-18T07:46:09.286Z,27.52
2017-05-18T07:46:50.195Z,27.59
2017-05-18T07:47:31.101Z,27.7
2017-05-18T07:48:12.033Z,27.67
2017-05-18T07:48:52.947Z,27.65
2017-05-18T07:49:33.853Z,27.9
2017-05-18T07:50:14.778Z,27
2017-05-18T07:50:55.690Z,27.37
2017-05-18T07:51:36.709Z,27.64
2017-05-18T07:52:17.627Z,28.11
2017-05-18T07:52:58.534Z,28.2
2017-05-18T07:53:39.444Z,28.15
2017-05-18T07:54:20.350Z,28.1
2017-05-18T07:55:01.256Z,28.12
2017-05-18T07:55:42.161Z,27.78
2017-05-18T07:56:23.075Z,27.65
2017-05-18T07:57:03.987Z,27.78
2017-05-18T07:57:44.918Z,27.83
2017-05-18T07:58:25.830Z,27.7
2017-05-18T07:59:06.741Z,27.45
2017-05-18T07:59:47.647Z,27.22
2017-05-18T08:00:28.555Z,27.37
2017-05-18T08:01:09.468Z,27.39
2017-05-18T08:01:50.399Z,27.47
2017-05-18T08:02:31.303Z,27.26
2017-05-18T08:03:12.216Z,27.26
2017-05-18T08:03:53.130Z,27.4
2017-05-18T08:04:34.033Z,27.51
2017-05-18T08:05:14.945Z,27.51
2017-05-18T08:05:55.849Z,27.63
2017-05-18T08:06:36.763Z,27.58
2017-05-18T08:07:17.674Z,27.82
2017-05-18T08:07:58.580Z,27.86
2017-05-18T08:08:39.490Z,27.73
2017-05-18T08:09:20.395Z,27.77
2017-05-18T08:10:01.305Z,27.71
2017-05-18T08:10:42.216Z,27.77
2017-05-18T08:11:23.124Z,27.8
2017-05-18T08:12:04.034Z,27.78
2017-05-18T08:12:44.943Z,27.73
2017-05-18T08:13:25.849Z,27.8
2017-05-18T08:14:06.758Z,27.45
2017-05-18T08:14:47.671Z,27.4
2017-05-18T08:15:28.579Z,27.63
2017-05-18T08:16:09.488Z,27.39
2017-05-18T08:16:50.402Z,27.45
2017-05-18T08:17:31.309Z,27.85
2017-05-18T08:18:12.216Z,27.7
2017-05-18T08:18:53.120Z,27.78
2017-05-18T08:19:34.024Z,27.75
2017-05-18T08:20:14.942Z,27.82
2017-05-18T08:20:55.855Z,27.59
2017-05-18T08:21:36.763Z,27.68
2017-05-18T08:22:17.667Z,27.78
2017-05-18T08:22:58.578Z,27.74
2017-05-18T08:23:39.489Z,27.8
2017-05-18T08:24:20.397Z,27.87
2017-05-18T08:25:01.305Z,28.29
2017-05-18T08:25:42.229Z,28.62
2017-05-18T08:26:23.121Z,29.07
2017-05-18T08:27:04.027Z,29.19
2017-05-18T08:27:44.940Z,29.44
2017-05-18T08:28:25.873Z,29.24
2017-05-18T08:29:06.811Z,29.69
2017-05-18T08:29:47.722Z,29.87
2017-05-18T08:30:28.630Z,30.19
2017-05-18T08:31:09.537Z,30.21
2017-05-18T08:31:50.458Z,30.32
2017-05-18T08:32:31.381Z,30.59
2017-05-18T08:33:12.299Z,30.91
2017-05-18T08:33:53.194Z,31.1
2017-05-18T08:34:34.107Z,31.21
2017-05-18T08:35:15.021Z,30.92
2017-05-18T08:35:55.973Z,31.17
2017-05-18T08:36:36.911Z,31.39
2017-05-18T08:37:17.832Z,31.4
2017-05-18T08:37:58.753Z,31.64
2017-05-18T08:38:39.670Z,31.62
2017-05-18T08:39:20.586Z,31.31
2017-05-18T08:40:01.508Z,31.34
2017-05-18T08:40:42.419Z,30.97
2017-05-18T08:41:23.328Z,30.84
2017-05-18T08:42:04.234Z,30.54
2017-05-18T08:42:45.167Z,30.12
2017-05-18T08:43:26.094Z,30.32
2017-05-18T08:44:07.004Z,29.95
2017-05-18T08:44:47.926Z,30.25
2017-05-18T08:45:28.835Z,30.21
2017-05-18T08:46:09.757Z,30.3
2017-05-18T08:46:50.677Z,30.23
2017-05-18T08:47:31.600Z,30.34
2017-05-18T08:48:12.517Z,30.62
2017-05-18T08:48:53.430Z,30.69
2017-05-18T08:49:34.385Z,31.17
2017-05-18T08:50:15.303Z,31.51
2017-05-18T08:50:56.227Z,31.69
2017-05-18T08:51:37.143Z,31.69
2017-05-18T08:52:18.055Z,31.64
2017-05-18T08:52:58.959Z,31.34
2017-05-18T08:53:39.863Z,31.39
2017-05-18T08:54:20.779Z,31.7
2017-05-18T08:55:01.712Z,31.97
2017-05-18T08:55:42.624Z,32.16